2001 BINDU (2001003S09091)


On this page: IBTrACS data - Map and Plots - Positions - Intensities - Original source data

Summary

Start Jan 3
End Jan 22
Basin SI
LMI 100 kt
Sources jtwc_sh
reunion
neumann
In WMO? Yes
Previous storm 2001 ANDO (SI)
Previous in basin 2001 ANDO (SI)
Concurrent storms 2000 SOULIK (WP)
2001 ANDO (SI)
2001 BINDU (SI)
2001 CHARLY (SI)
Next in basin 2001 CHARLY (SI)
Next storm 2001 CHARLY (SI)

top of page IBTrACS Data: File Access

top of page HURSAT Data: File Access

Image of storm

top of page Plots:

Map of storm track will not appear if FTP is down
Time series of cyclone Maximum Sustained Wind will not appear if FTP is down
Time series of cyclone Minimum Central Pressure will not appear if FTP is down

top of page Track Data:Position

jtwc_sh reunion neumann
Date Lat Lon Lat Lon Lat Lon
2001-01-03 06:00:00 -8.9 90.6
2001-01-03 12:00:00 -9.1 89.7
2001-01-03 18:00:00 -9.2 88.7
2001-01-04 00:00:00 -9.3 87.6
2001-01-04 06:00:00 -9.4 86.8
2001-01-04 12:00:00 -9.3 86.3
2001-01-04 18:00:00 -9.2 85.8
2001-01-05 00:00:00 -9.1 85.3
2001-01-05 06:00:00 -9.1 84.7
2001-01-05 12:00:00 -9.4 83.8
2001-01-05 18:00:00 -9.6 82.9
2001-01-06 00:00:00 -10.2 79.6 -9.5 81.9 -10.2 79.6
2001-01-06 06:00:00 -10.4 79.1 -9.4 80.9 -10.4 79.1
2001-01-06 12:00:00 -10.6 78.6 -9.8 79.5 -10.6 78.6
2001-01-06 18:00:00 -10.8 78.2 -10.5 78.3 -10.8 78.2
2001-01-07 00:00:00 -11.1 77.4 -11.2 77.4 -11.1 77.4
2001-01-07 06:00:00 -11.6 76.3 -11.7 76.2 -11.6 76.3
2001-01-07 12:00:00 -11.7 75.1 -11.7 74.8 -11.7 75.1
2001-01-07 18:00:00 -11.9 74.1 -11.9 74.2 -11.9 74.1
2001-01-08 00:00:00 -12.4 73.4 -12.6 73.7 -12.4 73.4
2001-01-08 06:00:00 -13.3 73.5 -13.5 73.4 -13.3 73.5
2001-01-08 12:00:00 -14.2 73.4 -14.4 73.3 -14.2 73.4
2001-01-08 18:00:00 -15.2 73.1 -15.3 73.1 -15.2 73.1
2001-01-09 00:00:00 -15.7 72.6 -15.6 72.6 -15.7 72.6
2001-01-09 06:00:00 -15.9 72.5 -15.7 72.4 -15.9 72.5
jtwc_sh reunion neumann
2001-01-09 12:00:00 -16.0 72.6 -16.0 72.5 -16.0 72.6
2001-01-09 18:00:00 -16.1 72.7 -16.2 72.6 -16.1 72.7
2001-01-10 00:00:00 -16.2 72.8 -16.3 72.8 -16.2 72.8
2001-01-10 06:00:00 -16.4 72.9 -16.4 72.8 -16.4 72.9
2001-01-10 12:00:00 -16.5 72.8 -16.4 72.6 -16.5 72.8
2001-01-10 18:00:00 -16.6 72.4 -16.5 72.2 -16.6 72.4
2001-01-11 00:00:00 -16.6 71.8 -16.5 71.8 -16.6 71.8
2001-01-11 06:00:00 -16.6 71.3 -16.6 71.4 -16.6 71.3
2001-01-11 12:00:00 -16.7 70.7 -16.8 70.6 -16.7 70.7
2001-01-11 18:00:00 -16.9 70.1 -16.9 69.9 -16.9 70.1
2001-01-12 00:00:00 -17.1 69.5 -17.1 69.3 -17.1 69.5
2001-01-12 06:00:00 -17.3 69.3 -17.4 69.2 -17.3 69.3
2001-01-12 12:00:00 -17.6 69.2 -17.6 69.2 -17.6 69.2
2001-01-12 18:00:00 -18.0 69.1 -18.1 69.1 -18.0 69.1
2001-01-13 00:00:00 -18.5 68.9 -18.5 68.9 -18.5 68.9
2001-01-13 06:00:00 -18.9 68.8 -19.1 68.8 -18.9 68.8
2001-01-13 12:00:00 -19.2 68.6 -19.4 68.6 -19.2 68.6
2001-01-13 18:00:00 -19.4 68.7 -19.2 68.6 -19.4 68.8
2001-01-14 00:00:00 -19.6 69.0 -19.1 68.6 -19.6 69.0
2001-01-14 06:00:00 -19.9 69.0 -19.3 68.4 -19.9 69.0
2001-01-14 12:00:00 -19.6 68.5 -19.3 68.4 -19.6 68.5
2001-01-14 18:00:00 -20.2 68.2 -19.6 67.7 -20.2 68.2
2001-01-15 00:00:00 -20.4 67.4 -19.8 66.9 -20.4 67.4
2001-01-15 06:00:00 -20.1 66.2 -20.0 66.0 -20.1 66.2
jtwc_sh reunion neumann
2001-01-15 12:00:00 -20.3 65.1 -20.2 65.2 -20.3 65.1
2001-01-15 18:00:00 -20.7 64.2 -20.6 64.2 -20.7 64.2
2001-01-16 00:00:00 -21.3 63.1 -21.0 63.3 -21.3 63.1
2001-01-16 06:00:00 -21.7 62.1 -21.7 62.1 -21.7 62.1
2001-01-16 12:00:00 -22.2 61.2 -22.2 61.3 -22.2 61.3
2001-01-16 18:00:00 -22.7 60.5 -22.8 60.5 -22.7 60.5
2001-01-17 00:00:00 -23.3 59.8 -23.5 59.5 -23.3 59.8
2001-01-17 06:00:00 -24.2 59.2 -24.5 59.4 -24.2 59.2
2001-01-17 12:00:00 -25.1 59.3 -25.4 59.5 -25.1 59.3
2001-01-17 18:00:00 -27.1 59.7
2001-01-18 00:00:00 -28.8 60.0
2001-01-18 06:00:00 -30.3 60.1
2001-01-18 12:00:00 -31.4 60.1
2001-01-18 18:00:00 -31.5 60.8
2001-01-19 00:00:00 -31.4 61.5
2001-01-19 06:00:00 -31.2 62.2
2001-01-19 12:00:00 -31.1 63.0
2001-01-19 18:00:00 -30.9 63.5
2001-01-20 00:00:00 -31.1 63.5
2001-01-20 06:00:00 -31.6 63.2
2001-01-20 12:00:00 -31.7 62.6
2001-01-20 18:00:00 -31.6 62.0
2001-01-21 00:00:00 -31.5 61.4
2001-01-21 06:00:00 -31.6 60.8
jtwc_sh reunion neumann
2001-01-21 12:00:00 -31.7 60.4
2001-01-21 18:00:00 -32.5 60.1
2001-01-22 00:00:00 -33.6 59.9
2001-01-22 06:00:00 -34.9 60.3

top of pageTrack Data:Intensity

jtwc_sh reunion neumann
Date Wind Pres Wind Pres Wind Pres
2001-01-03 06:00:00 25. 1002.
2001-01-03 12:00:00 25. 1002.
2001-01-03 18:00:00 25. 1002.
2001-01-04 00:00:00 25. 1002.
2001-01-04 06:00:00 25. 1000.
2001-01-04 12:00:00 25. 1000.
2001-01-04 18:00:00 25. 1000.
2001-01-05 00:00:00 25. 1002.
2001-01-05 06:00:00 25. 1002.
2001-01-05 12:00:00 25. 1000.
2001-01-05 18:00:00 25. 1000.
2001-01-06 00:00:00 25. 25. 1000. 25.
2001-01-06 06:00:00 25. 25. 1000. 25.
2001-01-06 12:00:00 25. 25. 999. 25.
2001-01-06 18:00:00 30. 30. 998. 30.
2001-01-07 00:00:00 30. 30. 998. 30.
2001-01-07 06:00:00 30. 30. 998. 30.
2001-01-07 12:00:00 35. 33. 996. 35.
2001-01-07 18:00:00 40. 40. 992. 40.
2001-01-08 00:00:00 50. 40. 990. 50.
2001-01-08 06:00:00 60. 50. 985. 60.
2001-01-08 12:00:00 65. 55. 978. 65.
2001-01-08 18:00:00 75. 60. 975. 75.
2001-01-09 00:00:00 80. 70. 965. 80.
2001-01-09 06:00:00 85. 75. 960. 85.
jtwc_sh reunion neumann
2001-01-09 12:00:00 90. 75. 960. 90.
2001-01-09 18:00:00 90. 75. 960. 90.
2001-01-10 00:00:00 90. 75. 960. 90.
2001-01-10 06:00:00 85. 75. 960. 85.
2001-01-10 12:00:00 75. 60. 975. 75.
2001-01-10 18:00:00 70. 55. 980. 70.
2001-01-11 00:00:00 65. 55. 980. 65.
2001-01-11 06:00:00 65. 60. 975. 65.
2001-01-11 12:00:00 65. 65. 970. 65.
2001-01-11 18:00:00 70. 70. 965. 70.
2001-01-12 00:00:00 75. 70. 963. 75.
2001-01-12 06:00:00 85. 75. 958. 85.
2001-01-12 12:00:00 95. 75. 958. 95.
2001-01-12 18:00:00 100. 80. 955. 100.
2001-01-13 00:00:00 100. 80. 955. 100.
2001-01-13 06:00:00 95. 80. 955. 95.
2001-01-13 12:00:00 90. 80. 955. 90.
2001-01-13 18:00:00 90. 80. 955. 90.
2001-01-14 00:00:00 85. 75. 960. 85.
2001-01-14 06:00:00 75. 70. 965. 75.
2001-01-14 12:00:00 70. 60. 975. 70.
2001-01-14 18:00:00 65. 55. 980. 65.
2001-01-15 00:00:00 55. 50. 985. 55.
2001-01-15 06:00:00 50. 45. 987. 50.
jtwc_sh reunion neumann
2001-01-15 12:00:00 45. 45. 990. 45.
2001-01-15 18:00:00 45. 45. 990. 45.
2001-01-16 00:00:00 40. 40. 992. 40.
2001-01-16 06:00:00 35. 37. 994. 35.
2001-01-16 12:00:00 30. 33. 996. 30.
2001-01-16 18:00:00 25. 30. 998. 25.
2001-01-17 00:00:00 25. 30. 1000. 25.
2001-01-17 06:00:00 25. 30. 1000. 25.
2001-01-17 12:00:00 25. 30. 1000. 25.
2001-01-17 18:00:00 30. 1000.
2001-01-18 00:00:00 35. 1000.
2001-01-18 06:00:00 35. 1000.
2001-01-18 12:00:00 35. 1000.
2001-01-18 18:00:00 35. 1000.
2001-01-19 00:00:00 35. 1000.
2001-01-19 06:00:00 35. 1000.
2001-01-19 12:00:00 35. 1000.
2001-01-19 18:00:00 30. 1002.
2001-01-20 00:00:00 30. 1002.
2001-01-20 06:00:00 30. 1002.
2001-01-20 12:00:00 30. 1002.
2001-01-20 18:00:00 25. 1004.
2001-01-21 00:00:00 25. 1004.
2001-01-21 06:00:00 25. 1004.
jtwc_sh reunion neumann
2001-01-21 12:00:00 25. 1004.
2001-01-21 18:00:00 25. 1005.
2001-01-22 00:00:00 20. 1006.
2001-01-22 06:00:00 20. 1008.

top of page Links to source data

Source Source file Format
jtwc_sh bsh052001.txt ATCF
reunion WMO-Best-Tracks.txt:Line=19309:bindu WMO (old format)
neumann tracks.sh:Storm=1208:BINDU:BSH052001:JTWC HURDAT